Time;durP1;ratioP1;P1;durP2;ratioP2;P2;SDS_P1;SDS_P2;PMS_P1;PMS_P2;Temp;Humidity;BMP_temperature;BMP_pressure;BME280_temperature;BME280_humidity;BME280_pressure;Samples;Min_cycle;Max_cycle;Signal;HPM_P1;HPM_P2
2021/01/11 00:48:41;;;;;;;12.65;8.70;;;51.60;2227.20;;;;;;5013014;28;20053;-83
2021/01/11 02:14:55;;;;;;;12.68;8.13;;;51.60;2227.20;;;;;;5636150;23;20043;-81
2021/01/11 10:56:31;;;;;;;16.27;12.88;;;76.90;2227.20;;;;;;4554736;28;10508382;-80
2021/01/11 11:31:50;;;;;;;45.42;32.08;;;77.00;2227.20;;;;;;5109501;27;20365;-84
2021/01/11 11:34:16;;;;;;;37.75;29.13;;;77.50;2227.20;;;;;;5110523;28;20077;-87
2021/01/11 11:36:42;;;;;;;39.38;25.92;;;77.40;2227.20;;;;;;5110258;28;20020;-89
2021/01/11 11:39:07;;;;;;;48.83;36.63;;;77.30;2227.20;;;;;;5110546;28;20026;-86
2021/01/11 11:41:33;;;;;;;34.63;27.85;;;77.30;2227.20;;;;;;5110984;28;20039;-86
2021/01/11 11:43:59;;;;;;;43.15;30.58;;;77.20;2227.20;;;;;;5112052;28;20031;-85
2021/01/11 11:46:25;;;;;;;46.55;34.35;;;77.30;2227.20;;;;;;5110594;28;20107;-85
2021/01/11 11:48:50;;;;;;;39.42;28.55;;;77.30;2227.20;;;;;;5111984;28;20027;-84
2021/01/11 11:51:16;;;;;;;41.42;31.08;;;77.30;2227.20;;;;;;5110621;28;20057;-84
2021/01/11 11:53:42;;;;;;;31.35;23.67;;;77.20;2227.20;;;;;;5111918;28;20107;-84
2021/01/11 11:56:08;;;;;;;41.47;32.22;;;77.20;2227.20;;;;;;5111889;28;20027;-85
2021/01/11 11:58:33;;;;;;;71.72;50.55;;;77.20;2227.20;;;;;;5111516;28;20531;-86
2021/01/11 12:00:59;;;;;;;43.03;31.38;;;77.20;2227.20;;;;;;5111510;28;20447;-84
2021/01/11 12:03:25;;;;;;;46.42;32.45;;;77.20;2227.20;;;;;;5111188;28;20461;-85
2021/01/11 12:05:52;;;;;;;49.42;36.75;;;77.20;2227.20;;;;;;5110540;28;20389;-85
2021/01/11 12:08:18;;;;;;;27.58;20.95;;;77.20;2227.20;;;;;;5110404;28;20463;-85
2021/01/11 12:10:44;;;;;;;27.48;20.38;;;77.20;2227.20;;;;;;5110731;28;20455;-83
2021/01/11 12:13:10;;;;;;;46.38;35.78;;;77.10;2227.20;;;;;;5110868;28;20035;-85
2021/01/11 12:15:36;;;;;;;43.80;31.00;;;77.20;2227.20;;;;;;5105153;28;20470;-86
2021/01/11 12:18:02;;;;;;;36.97;27.13;;;77.30;2227.20;;;;;;5089542;28;20093;-85
2021/01/11 12:20:28;;;;;;;36.72;26.63;;;77.30;2227.20;;;;;;5089829;28;20447;-85
2021/01/11 12:22:53;;;;;;;37.13;29.65;;;77.30;2227.20;;;;;;5090346;28;20020;-86
2021/01/11 12:25:19;;;;;;;32.95;23.33;;;77.30;2227.20;;;;;;5090019;28;20063;-85
2021/01/11 12:27:45;;;;;;;45.17;31.33;;;77.30;2227.20;;;;;;5090198;28;20025;-86
2021/01/11 12:30:11;;;;;;;46.53;30.30;;;77.30;2227.20;;;;;;5088959;28;20056;-85
2021/01/11 12:32:40;;;;;;;40.70;30.67;;;77.30;2227.20;;;;;;5090831;28;20086;-85
2021/01/11 12:35:06;;;;;;;28.27;22.23;;;77.30;2227.20;;;;;;5089210;28;20020;-86
2021/01/11 12:37:32;;;;;;;37.28;28.35;;;77.20;2227.20;;;;;;5089401;28;20024;-86
2021/01/11 12:39:58;;;;;;;39.70;28.15;;;77.20;2227.20;;;;;;5090563;28;20150;-87
2021/01/11 12:42:24;;;;;;;47.35;33.45;;;77.10;2227.20;;;;;;5080173;28;20066;-86
2021/01/11 12:44:49;;;;;;;56.35;39.60;;;77.20;2227.20;;;;;;5076970;28;20029;-86
2021/01/11 12:47:15;;;;;;;48.33;32.97;;;77.30;2227.20;;;;;;5075897;28;20047;-85
2021/01/11 12:49:41;;;;;;;35.72;25.05;;;77.30;2227.20;;;;;;5075109;28;20115;-85
2021/01/11 12:52:14;;;;;;;40.25;27.45;;;77.30;2227.20;;;;;;5075775;28;20024;-85
2021/01/11 12:54:40;;;;;;;34.28;24.38;;;77.20;2227.20;;;;;;5075631;28;20060;-86
2021/01/11 12:57:06;;;;;;;48.67;33.50;;;77.10;2227.20;;;;;;5075305;28;20033;-86
2021/01/11 12:59:33;;;;;;;53.22;36.67;;;77.20;2227.20;;;;;;5076880;28;20021;-86
2021/01/11 13:01:59;;;;;;;36.53;28.63;;;77.20;2227.20;;;;;;5076854;28;20553;-84
2021/01/11 13:04:25;;;;;;;43.65;32.45;;;77.10;2227.20;;;;;;5074945;28;20028;-86
2021/01/11 13:06:51;;;;;;;42.00;27.60;;;77.20;2227.20;;;;;;5075976;28;20024;-87
2021/01/11 13:09:17;;;;;;;53.60;34.55;;;77.10;2227.20;;;;;;5076828;28;20103;-87
2021/01/11 13:11:43;;;;;;;60.85;41.25;;;77.20;2227.20;;;;;;5076336;28;20120;-84
2021/01/11 13:14:08;;;;;;;35.92;27.70;;;77.20;2227.20;;;;;;5076100;28;20021;-86
2021/01/11 13:16:35;;;;;;;49.55;40.25;;;77.20;2227.20;;;;;;5075181;28;20596;-86
2021/01/11 13:19:06;;;;;;;45.58;30.23;;;77.20;2227.20;;;;;;5075831;28;20470;-86
2021/01/11 13:21:33;;;;;;;48.65;36.08;;;77.20;2227.20;;;;;;5075615;28;20469;-83
2021/01/11 13:23:59;;;;;;;45.20;32.10;;;77.20;2227.20;;;;;;5075938;28;20023;-84
2021/01/11 13:26:43;;;;;;;51.53;45.22;;;77.20;2227.20;;;;;;5075313;28;20063;-82
2021/01/11 13:29:11;;;;;;;71.18;63.97;;;77.20;2227.20;;;;;;5091990;28;20032;-86
2021/01/11 13:31:47;;;;;;;45.25;32.47;;;77.20;2227.20;;;;;;5074464;28;20507;-86
2021/01/11 13:34:14;;;;;;;52.40;38.88;;;77.20;2227.20;;;;;;5075139;28;20118;-87
2021/01/11 13:36:40;;;;;;;63.55;46.88;;;77.20;2227.20;;;;;;5074697;28;20028;-86
2021/01/11 13:39:07;;;;;;;67.75;45.53;;;77.40;2227.20;;;;;;5074674;28;20429;-86
2021/01/11 13:41:41;;;;;;;42.20;30.92;;;77.30;2227.20;;;;;;5076082;28;20518;-87
2021/01/11 13:44:09;;;;;;;79.15;41.47;;;77.30;2227.20;;;;;;5075064;28;20042;-85
2021/01/11 13:46:40;;;;;;;110.28;56.92;;;77.20;2227.20;;;;;;5074273;28;20025;-86
2021/01/11 13:49:07;;;;;;;94.72;53.25;;;77.20;2227.20;;;;;;5074611;28;20031;-87
2021/01/11 13:51:33;;;;;;;101.65;58.67;;;77.20;2227.20;;;;;;5074413;28;20467;-85
2021/01/11 13:53:59;;;;;;;57.47;36.30;;;77.20;2227.20;;;;;;5073717;28;20031;-86
2021/01/11 13:56:26;;;;;;;63.50;39.13;;;77.20;2227.20;;;;;;5074638;28;20020;-84
2021/01/11 13:58:53;;;;;;;77.45;48.58;;;77.10;2227.20;;;;;;5073993;28;20029;-86
2021/01/11 14:01:20;;;;;;;65.25;41.75;;;77.10;2227.20;;;;;;5074526;28;20028;-85
2021/01/11 14:03:47;;;;;;;57.85;36.30;;;77.10;2227.20;;;;;;5074374;28;20067;-87
2021/01/11 14:06:12;;;;;;;45.83;32.40;;;77.50;2227.20;;;;;;5074609;28;20031;-88
2021/01/11 14:08:38;;;;;;;111.95;65.38;;;77.10;2227.20;;;;;;5074178;28;20024;-86
2021/01/11 14:11:04;;;;;;;119.07;72.75;;;77.10;2227.20;;;;;;5074131;28;20033;-88
2021/01/11 14:13:31;;;;;;;171.15;94.10;;;77.00;2227.20;;;;;;5073531;28;20112;-85
2021/01/11 14:15:56;;;;;;;127.05;72.72;;;77.10;2227.20;;;;;;5073996;28;20100;-83
2021/01/11 14:18:22;;;;;;;91.65;55.00;;;77.10;2227.20;;;;;;5073968;28;20063;-82
2021/01/11 14:20:48;;;;;;;43.85;29.73;;;77.10;2227.20;;;;;;5073356;28;20115;-86
2021/01/11 14:23:14;;;;;;;65.45;46.25;;;77.10;2227.20;;;;;;5073974;28;20029;-86
2021/01/11 14:25:39;;;;;;;73.72;46.50;;;77.00;2227.20;;;;;;5074090;28;20035;-88
2021/01/11 14:28:05;;;;;;;82.82;51.30;;;77.00;2227.20;;;;;;5073649;28;20456;-88
2021/01/11 14:30:33;;;;;;;79.65;52.08;;;77.00;2227.20;;;;;;5073909;28;20057;-87
2021/01/11 14:33:00;;;;;;;147.55;90.60;;;77.00;2227.20;;;;;;5073883;28;20021;-86
2021/01/11 14:35:26;;;;;;;99.68;60.83;;;77.10;2227.20;;;;;;5073812;28;20464;-85
2021/01/11 14:37:55;;;;;;;94.05;64.50;;;77.00;2227.20;;;;;;5078323;28;20462;-86
2021/01/11 14:40:22;;;;;;;85.22;54.88;;;77.00;2227.20;;;;;;5073814;28;20032;-86
2021/01/11 14:42:48;;;;;;;96.90;62.55;;;76.90;2227.20;;;;;;5088909;28;20032;-87
2021/01/11 14:45:17;;;;;;;87.50;55.75;;;77.00;2227.20;;;;;;5073699;28;20162;-85
2021/01/11 14:47:43;;;;;;;76.07;50.88;;;77.00;2227.20;;;;;;5072997;28;20036;-86
2021/01/11 14:50:10;;;;;;;53.53;37.75;;;77.00;2227.20;;;;;;5072174;28;20032;-87
2021/01/11 14:52:35;;;;;;;47.58;34.42;;;77.10;2227.20;;;;;;5074176;28;20475;-87
2021/01/11 14:55:01;;;;;;;67.18;46.55;;;76.90;2227.20;;;;;;5073307;28;20036;-88
2021/01/11 14:57:27;;;;;;;89.43;62.72;;;76.90;2227.20;;;;;;5073644;28;20459;-87
2021/01/11 14:59:53;;;;;;;82.72;63.72;;;76.90;2227.20;;;;;;5073008;28;20024;-88
2021/01/11 15:02:20;;;;;;;90.60;68.75;;;77.10;2227.20;;;;;;5072546;28;22223;-85
2021/01/11 15:04:46;;;;;;;93.40;65.38;;;76.90;2227.20;;;;;;5074915;28;20402;-83
2021/01/11 15:07:11;;;;;;;79.82;55.42;;;76.90;2227.20;;;;;;5069915;28;20099;-84
2021/01/11 15:09:38;;;;;;;62.95;43.45;;;76.90;2227.20;;;;;;5072692;28;20429;-87
2021/01/11 15:12:04;;;;;;;75.45;52.53;;;76.90;2227.20;;;;;;5082708;28;20024;-84
2021/01/11 15:14:31;;;;;;;100.82;63.50;;;76.90;2227.20;;;;;;5070737;28;20028;-83
2021/01/11 15:16:58;;;;;;;92.72;59.17;;;76.90;2227.20;;;;;;5073225;28;20024;-83
2021/01/11 15:19:24;;;;;;;89.97;56.45;;;76.90;2227.20;;;;;;5071348;28;20028;-84
2021/01/11 15:21:49;;;;;;;117.50;70.38;;;76.80;2227.20;;;;;;5073526;28;20024;-84
2021/01/11 15:24:15;;;;;;;87.32;54.88;;;76.80;2227.20;;;;;;5070108;28;20058;-85
2021/01/11 15:26:41;;;;;;;98.03;60.67;;;76.80;2227.20;;;;;;5070440;28;20017;-84
2021/01/11 15:29:10;;;;;;;46.60;32.45;;;52.10;2227.20;;;;;;5069998;28;20021;-85
2021/01/11 15:31:36;;;;;;;46.72;32.45;;;52.10;2227.20;;;;;;5076930;28;20051;-83
2021/01/11 15:34:02;;;;;;;58.47;37.55;;;52.10;2227.20;;;;;;5065771;28;20024;-80
2021/01/11 15:36:31;;;;;;;53.25;34.50;;;51.90;2227.20;;;;;;5070252;28;20032;-82
2021/01/11 15:38:58;;;;;;;48.05;32.25;;;52.00;2227.20;;;;;;5070620;28;20036;-84
2021/01/11 15:41:27;;;;;;;55.47;37.15;;;51.90;2227.20;;;;;;5071689;28;20043;-87
2021/01/11 15:43:55;;;;;;;115.60;63.50;;;51.90;2227.20;;;;;;5071908;28;20029;-82
2021/01/11 15:46:26;;;;;;;112.50;67.55;;;51.90;2227.20;;;;;;5072599;28;20028;-83
2021/01/11 15:48:54;;;;;;;110.53;68.22;;;52.00;2227.20;;;;;;5072523;28;20025;-84
2021/01/11 15:51:31;;;;;;;82.38;57.00;;;51.80;2227.20;;;;;;5072203;28;20028;-83
2021/01/11 15:53:58;;;;;;;64.75;45.40;;;51.80;2227.20;;;;;;5072529;28;20025;-82
2021/01/11 15:56:25;;;;;;;62.33;42.08;;;51.80;2227.20;;;;;;5072572;28;20024;-82
2021/01/11 15:58:51;;;;;;;91.07;64.45;;;51.80;2227.20;;;;;;5071908;28;20448;-82
2021/01/11 16:01:18;;;;;;;104.38;71.68;;;51.80;2227.20;;;;;;5072419;28;20040;-84
2021/01/11 16:03:44;;;;;;;96.50;70.55;;;51.90;2227.20;;;;;;5073001;28;20360;-85
2021/01/11 16:06:13;;;;;;;82.32;57.95;;;51.90;2227.20;;;;;;5070052;28;20029;-82
2021/01/11 16:08:49;;;;;;;77.57;53.83;;;51.90;2227.20;;;;;;5072427;28;20025;-86
2021/01/11 16:11:19;;;;;;;70.47;47.80;;;51.90;2227.20;;;;;;5070867;28;20085;-82
2021/01/11 16:13:46;;;;;;;90.90;60.47;;;51.90;2227.20;;;;;;5067707;28;20061;-86
2021/01/11 16:16:15;;;;;;;87.10;55.05;;;52.00;2227.20;;;;;;5091516;28;20020;-85
2021/01/11 16:18:41;;;;;;;80.68;50.42;;;51.80;2227.20;;;;;;5094542;28;20024;-85
2021/01/11 16:21:07;;;;;;;82.70;51.67;;;51.70;2227.20;;;;;;5095538;28;20024;-80
2021/01/11 16:23:36;;;;;;;63.38;40.10;;;51.70;2227.20;;;;;;5096297;28;20027;-81
2021/01/11 16:26:04;;;;;;;72.35;45.15;;;51.70;2227.20;;;;;;5095980;28;20459;-80
2021/01/11 16:28:30;;;;;;;72.60;46.80;;;51.70;2227.20;;;;;;5096306;28;20117;-81
2021/01/11 16:30:56;;;;;;;68.53;44.83;;;51.60;2227.20;;;;;;5095582;28;20076;-80
2021/01/11 16:33:22;;;;;;;73.25;46.35;;;51.60;2227.20;;;;;;5095748;28;20455;-83
2021/01/11 16:35:48;;;;;;;71.57;46.53;;;51.60;2227.20;;;;;;5081962;28;20028;-82
2021/01/11 16:38:14;;;;;;;84.68;58.15;;;51.60;2227.20;;;;;;5075914;28;20056;-86
2021/01/11 16:40:40;;;;;;;91.55;57.60;;;51.60;2227.20;;;;;;5075078;28;20071;-86
2021/01/11 16:43:06;;;;;;;86.55;55.25;;;51.60;2227.20;;;;;;5075691;28;20021;-88
2021/01/11 16:45:32;;;;;;;107.18;64.07;;;51.70;2227.20;;;;;;5075758;28;20074;-85
2021/01/11 16:47:59;;;;;;;100.78;60.95;;;51.70;2227.20;;;;;;5075412;28;20056;-86
2021/01/11 16:50:25;;;;;;;86.38;56.25;;;51.70;2227.20;;;;;;5075151;28;20039;-88
2021/01/11 16:52:51;;;;;;;89.88;60.33;;;51.80;2227.20;;;;;;5075978;28;20025;-87
2021/01/11 16:55:21;;;;;;;85.68;54.13;;;51.80;2227.20;;;;;;5075384;28;20024;-87
2021/01/11 16:57:48;;;;;;;91.78;60.67;;;51.90;2227.20;;;;;;5075423;28;20111;-86
2021/01/11 17:00:15;;;;;;;70.43;48.88;;;51.90;2227.20;;;;;;5075740;28;20028;-88
2021/01/11 17:02:48;;;;;;;94.55;71.90;;;51.90;2227.20;;;;;;5058704;28;20036;-85
2021/01/11 17:05:14;;;;;;;;;;;51.90;2227.20;;;;;;5076606;28;20036;-90
2021/01/11 17:07:43;;;;;;;92.35;62.33;;;51.90;2227.20;;;;;;5076957;28;19927;-90
2021/01/11 17:10:09;;;;;;;67.43;47.22;;;51.50;2227.20;;;;;;5075714;28;20032;-91
2021/01/11 17:12:36;;;;;;;59.97;40.88;;;51.80;2227.20;;;;;;5076125;28;20017;-89
2021/01/11 17:15:07;;;;;;;75.40;48.40;;;51.80;2227.20;;;;;;5058956;28;20089;-90
2021/01/11 17:17:40;;;;;;;77.90;52.45;;;51.80;2227.20;;;;;;5092983;28;20063;-88
2021/01/11 17:20:07;;;;;;;67.68;46.15;;;51.80;2227.20;;;;;;5074835;28;20027;-89
2021/01/11 17:22:38;;;;;;;71.05;47.30;;;51.80;2227.20;;;;;;5075365;28;20028;-91
2021/01/11 17:25:06;;;;;;;55.08;35.90;;;51.80;2227.20;;;;;;5075959;28;20020;-88
2021/01/11 17:27:33;;;;;;;79.30;50.50;;;51.80;2227.20;;;;;;5074774;28;20025;-89
2021/01/11 17:30:00;;;;;;;67.07;44.42;;;51.80;2227.20;;;;;;5074277;28;20454;-86
2021/01/11 17:32:30;;;;;;;83.72;55.28;;;51.70;2227.20;;;;;;5074852;28;20051;-87
2021/01/11 17:34:56;;;;;;;57.97;37.55;;;51.80;2227.20;;;;;;5076098;28;20159;-87
2021/01/11 17:37:23;;;;;;;52.85;34.65;;;51.70;2227.20;;;;;;5074518;28;20379;-87
2021/01/11 17:39:49;;;;;;;61.35;41.35;;;51.70;2227.20;;;;;;5074783;28;20052;-88
2021/01/11 17:42:15;;;;;;;67.45;44.03;;;51.70;2227.20;;;;;;5074658;28;20059;-89
2021/01/11 17:44:41;;;;;;;55.50;39.30;;;51.70;2227.20;;;;;;5074357;28;20024;-86
2021/01/11 17:47:07;;;;;;;80.70;59.33;;;51.70;2227.20;;;;;;5074099;28;20020;-87
2021/01/11 17:49:33;;;;;;;72.85;45.78;;;51.80;2227.20;;;;;;5073892;28;20051;-87
2021/01/11 17:51:59;;;;;;;59.83;39.42;;;51.70;2227.20;;;;;;5074551;28;20052;-86
2021/01/11 17:54:26;;;;;;;56.22;38.20;;;51.70;2227.20;;;;;;5075362;28;20091;-89
2021/01/11 17:56:52;;;;;;;76.97;48.00;;;52.10;2227.20;;;;;;5091243;28;20068;-88
2021/01/11 17:59:18;;;;;;;82.70;50.53;;;51.70;2227.20;;;;;;5075296;28;20020;-83
2021/01/11 18:01:44;;;;;;;69.70;42.80;;;51.70;2227.20;;;;;;5074412;28;20025;-89
2021/01/11 18:04:10;;;;;;;69.03;43.47;;;51.70;2227.20;;;;;;5074769;28;20357;-85
2021/01/11 18:06:36;;;;;;;62.40;41.05;;;51.70;2227.20;;;;;;5074255;28;20039;-86
2021/01/11 18:09:02;;;;;;;95.05;54.35;;;51.70;2227.20;;;;;;5073971;28;20036;-83
2021/01/11 18:11:28;;;;;;;123.22;76.78;;;51.60;2227.20;;;;;;5073392;28;20029;-82
2021/01/11 18:13:54;;;;;;;115.47;71.22;;;51.60;2227.20;;;;;;5074184;28;20029;-83
2021/01/11 18:16:21;;;;;;;94.63;62.47;;;51.60;2227.20;;;;;;5073776;28;20088;-86
2021/01/11 18:18:47;;;;;;;97.78;64.28;;;51.50;2227.20;;;;;;5073143;28;20017;-83
2021/01/11 18:21:14;;;;;;;155.98;76.68;;;51.60;2227.20;;;;;;5073895;28;20131;-85
2021/01/11 18:23:41;;;;;;;79.18;47.33;;;51.80;2227.20;;;;;;5072986;28;20483;-83
2021/01/11 18:26:07;;;;;;;72.97;48.05;;;51.80;2227.20;;;;;;5073611;28;20024;-87
2021/01/11 18:28:36;;;;;;;71.65;53.20;;;51.70;2227.20;;;;;;5073920;28;20410;-88
2021/01/11 18:31:02;;;;;;;62.58;46.67;;;51.70;2227.20;;;;;;5074197;28;20045;-88
2021/01/11 18:33:29;;;;;;;63.35;45.90;;;51.70;2227.20;;;;;;5073548;28;20451;-88
2021/01/11 18:35:55;;;;;;;68.15;50.20;;;51.70;2227.20;;;;;;5075084;28;20020;-89
2021/01/11 18:38:21;;;;;;;57.10;40.33;;;51.80;2227.20;;;;;;5073308;28;20031;-89
2021/01/11 18:40:47;;;;;;;75.95;55.70;;;51.70;2227.20;;;;;;5072841;28;20070;-88
2021/01/11 18:43:13;;;;;;;64.25;43.28;;;51.60;2227.20;;;;;;5074043;28;20025;-87
2021/01/11 18:45:39;;;;;;;61.60;40.88;;;51.60;2227.20;;;;;;5074734;28;20028;-86
2021/01/11 18:48:05;;;;;;;73.72;51.33;;;51.70;2227.20;;;;;;5075184;28;20036;-85
2021/01/11 18:50:32;;;;;;;59.70;41.28;;;52.10;2227.20;;;;;;5074123;28;20033;-87
2021/01/11 18:52:58;;;;;;;115.35;66.07;;;51.70;2227.20;;;;;;5074324;28;20116;-85
2021/01/11 18:55:24;;;;;;;67.50;46.53;;;51.70;2227.20;;;;;;5073729;28;20511;-85
2021/01/11 18:57:49;;;;;;;65.70;47.05;;;51.70;2227.20;;;;;;5073458;28;20111;-87
2021/01/11 19:00:17;;;;;;;56.95;37.38;;;51.80;2227.20;;;;;;5072042;28;20028;-85
2021/01/11 19:02:43;;;;;;;52.10;34.78;;;51.80;2227.20;;;;;;5072798;28;20066;-85
2021/01/11 19:05:09;;;;;;;49.83;36.08;;;51.70;2227.20;;;;;;5089728;28;20036;-86
2021/01/11 19:07:36;;;;;;;54.80;38.90;;;51.70;2227.20;;;;;;5074051;28;20056;-87
2021/01/11 19:10:03;;;;;;;49.85;36.33;;;51.70;2227.20;;;;;;5052569;28;20384;-88
2021/01/11 19:12:29;;;;;;;57.63;38.65;;;77.60;2227.20;;;;;;5051714;28;20021;-87
2021/01/11 19:15:00;;;;;;;53.95;36.30;;;51.70;2227.20;;;;;;5051691;28;20551;-84
2021/01/11 19:17:26;;;;;;;51.55;36.88;;;51.80;2227.20;;;;;;5052477;28;20021;-86
2021/01/11 19:19:57;;;;;;;56.00;39.13;;;51.70;2227.20;;;;;;5061450;28;20024;-92
2021/01/11 19:22:29;;;;;;;76.25;51.10;;;51.70;2227.20;;;;;;5075027;28;20031;-89
2021/01/11 19:24:56;;;;;;;61.28;41.47;;;51.70;2227.20;;;;;;5073850;28;20483;-89
2021/01/11 19:27:21;;;;;;;94.72;56.28;;;51.80;2227.20;;;;;;5073149;28;20036;-88
2021/01/11 19:29:47;;;;;;;66.75;39.05;;;51.70;2227.20;;;;;;5073159;28;20360;-89
2021/01/11 19:32:13;;;;;;;140.38;73.32;;;51.70;2227.20;;;;;;5073001;28;20111;-88
2021/01/11 19:34:39;;;;;;;138.90;61.60;;;51.70;2227.20;;;;;;5073541;28;20044;-89
2021/01/11 19:37:05;;;;;;;141.02;60.92;;;51.70;2227.20;;;;;;5073318;28;20024;-86
2021/01/11 19:39:31;;;;;;;97.32;50.85;;;51.70;2227.20;;;;;;5073296;28;20052;-88
2021/01/11 19:41:57;;;;;;;109.40;62.60;;;51.70;2227.20;;;;;;5073337;28;20063;-89
2021/01/11 19:44:23;;;;;;;204.80;119.65;;;51.70;2227.20;;;;;;5073250;28;20021;-86
2021/01/11 19:46:49;;;;;;;173.35;74.22;;;51.70;2227.20;;;;;;5073227;28;20490;-88
2021/01/11 19:49:17;;;;;;;135.57;62.85;;;51.50;2227.20;;;;;;5073274;28;20033;-89
2021/01/11 19:51:42;;;;;;;105.60;60.85;;;51.40;2227.20;;;;;;5074579;28;20024;-87
2021/01/11 19:54:08;;;;;;;101.20;55.92;;;51.60;2227.20;;;;;;5077200;28;20066;-88
2021/01/11 19:56:35;;;;;;;98.80;52.25;;;51.60;2227.20;;;;;;5076863;28;20028;-88
2021/01/11 19:59:01;;;;;;;68.35;38.42;;;51.20;2227.20;;;;;;5076921;28;20025;-88
2021/01/11 20:01:31;;;;;;;65.47;40.30;;;51.50;2227.20;;;;;;5077820;28;20035;-89
2021/01/11 20:03:57;;;;;;;49.45;33.72;;;51.50;2227.20;;;;;;5076573;28;20024;-88
2021/01/11 20:06:26;;;;;;;62.03;44.67;;;51.50;2227.20;;;;;;5076447;28;20031;-89
2021/01/11 20:08:52;;;;;;;53.72;38.50;;;51.40;2227.20;;;;;;5076315;28;20027;-87
2021/01/11 20:11:19;;;;;;;46.10;33.47;;;51.50;2227.20;;;;;;5070187;28;20024;-85
2021/01/11 20:13:46;;;;;;;46.05;33.88;;;51.40;2227.20;;;;;;5056332;28;20495;-87
2021/01/11 20:16:13;;;;;;;58.30;36.08;;;51.30;2227.20;;;;;;5072744;28;20029;-88
2021/01/11 20:18:40;;;;;;;55.88;32.92;;;51.30;2227.20;;;;;;5056543;28;20037;-86
2021/01/11 20:21:11;;;;;;;100.97;52.70;;;51.30;2227.20;;;;;;5056723;28;20037;-90
2021/01/11 20:23:38;;;;;;;85.65;50.72;;;51.30;2227.20;;;;;;5057081;28;20064;-88
2021/01/11 20:26:05;;;;;;;77.28;48.15;;;51.30;2227.20;;;;;;5056850;28;20021;-87
2021/01/11 20:28:32;;;;;;;93.07;70.68;;;51.30;2227.20;;;;;;5056261;28;20534;-88
2021/01/11 20:30:59;;;;;;;68.75;43.50;;;51.30;2227.20;;;;;;5056087;28;20091;-87
2021/01/11 20:33:28;;;;;;;66.03;43.45;;;51.30;2227.20;;;;;;5056237;28;20107;-89
2021/01/11 20:35:58;;;;;;;75.80;46.33;;;51.40;2227.20;;;;;;5057145;28;20086;-88
2021/01/11 20:38:25;;;;;;;68.72;45.30;;;51.20;2227.20;;;;;;5055804;28;20017;-89
2021/01/11 20:40:51;;;;;;;40.03;27.33;;;26.50;2201.60;;;;;;5056465;28;20480;-90
2021/01/11 20:43:17;;;;;;;56.47;37.45;;;51.20;2227.20;;;;;;5056677;28;20350;-89
2021/01/11 20:45:44;;;;;;;94.75;56.70;;;51.20;2227.20;;;;;;5056227;28;20521;-87
2021/01/11 20:48:11;;;;;;;73.63;46.03;;;51.30;2227.20;;;;;;5056254;28;20021;-87
2021/01/11 20:50:38;;;;;;;72.03;46.53;;;51.30;2227.20;;;;;;5056319;28;20388;-87
2021/01/11 20:53:05;;;;;;;57.60;40.13;;;51.20;2227.20;;;;;;5056262;28;20053;-88
2021/01/11 20:55:31;;;;;;;73.43;42.88;;;51.30;2227.20;;;;;;5055979;28;20071;-89
2021/01/11 20:57:58;;;;;;;65.63;40.42;;;51.20;2227.20;;;;;;5056034;28;20530;-89
2021/01/11 21:00:25;;;;;;;53.65;36.03;;;51.30;2227.20;;;;;;5055684;28;20033;-88
2021/01/11 21:02:51;;;;;;;54.20;35.78;;;51.20;2227.20;;;;;;5056141;28;20064;-87
2021/01/11 21:05:18;;;;;;;62.30;42.65;;;51.40;2227.20;;;;;;5055930;28;20052;-85
2021/01/11 21:07:44;;;;;;;46.22;32.28;;;51.30;2227.20;;;;;;5055384;28;20025;-87
2021/01/11 21:10:11;;;;;;;68.03;39.90;;;51.30;2227.20;;;;;;5056471;28;20414;-89
2021/01/11 21:12:37;;;;;;;69.13;42.72;;;51.30;2227.20;;;;;;5055701;28;20032;-88
2021/01/11 21:15:05;;;;;;;52.33;32.30;;;51.30;2227.20;;;;;;5055459;28;20024;-88
2021/01/11 21:17:31;;;;;;;76.53;48.75;;;51.30;2227.20;;;;;;5081190;28;20020;-87
2021/01/11 21:19:57;;;;;;;63.47;37.40;;;51.30;2227.20;;;;;;5074676;28;20108;-87
2021/01/11 21:22:23;;;;;;;64.47;41.70;;;51.40;2227.20;;;;;;5074778;28;20079;-87
2021/01/11 21:24:50;;;;;;;75.07;42.33;;;51.40;2227.20;;;;;;5074899;28;20454;-86
2021/01/11 21:27:16;;;;;;;82.90;47.80;;;51.40;2227.20;;;;;;5074400;28;20478;-88
2021/01/11 21:29:42;;;;;;;86.90;51.78;;;51.50;2227.20;;;;;;5074693;28;20460;-87
2021/01/11 21:32:09;;;;;;;77.72;44.42;;;51.50;2227.20;;;;;;5074581;28;20032;-86
2021/01/11 21:34:35;;;;;;;77.43;46.05;;;51.60;2227.20;;;;;;5074568;28;20031;-87
2021/01/11 21:37:05;;;;;;;88.70;51.30;;;51.50;2227.20;;;;;;5074594;28;20103;-88
2021/01/11 21:39:32;;;;;;;48.70;28.08;;;51.50;2227.20;;;;;;5073926;28;20024;-88
2021/01/11 21:41:58;;;;;;;88.50;45.10;;;51.40;2227.20;;;;;;5074480;28;20020;-89
2021/01/11 21:44:25;;;;;;;65.93;36.83;;;51.40;2227.20;;;;;;5091603;28;20058;-88
2021/01/11 21:46:52;;;;;;;54.15;34.17;;;51.40;2227.20;;;;;;5082584;28;20061;-87
2021/01/11 21:49:18;;;;;;;60.85;39.22;;;26.30;2201.60;;;;;;5071951;28;20495;-87
2021/01/11 21:51:46;;;;;;;46.45;31.35;;;51.40;2227.20;;;;;;5075834;28;20383;-88
2021/01/11 21:54:14;;;;;;;43.40;29.98;;;51.30;2227.20;;;;;;5074363;28;20027;-87
2021/01/11 21:56:41;;;;;;;50.70;33.42;;;51.40;2227.20;;;;;;5074182;28;20056;-86
2021/01/11 21:59:07;;;;;;;47.70;32.35;;;51.20;2227.20;;;;;;5074581;28;20107;-86
2021/01/11 22:01:33;;;;;;;38.13;25.83;;;51.30;2227.20;;;;;;5074261;28;20078;-88
2021/01/11 22:03:59;;;;;;;39.35;29.73;;;51.30;2227.20;;;;;;5068612;28;20017;-88
2021/01/11 22:06:25;;;;;;;47.65;30.05;;;51.30;2227.20;;;;;;5074200;28;20059;-87
2021/01/11 22:08:51;;;;;;;33.63;23.02;;;51.20;2227.20;;;;;;5074139;28;20020;-87
2021/01/11 22:11:20;;;;;;;48.22;30.95;;;51.20;2227.20;;;;;;5073326;28;20486;-88
2021/01/11 22:13:47;;;;;;;38.42;25.83;;;51.20;2227.20;;;;;;5074378;28;20012;-87
2021/01/11 22:16:13;;;;;;;47.00;30.85;;;26.50;2201.60;;;;;;5076311;28;20039;-86
2021/01/11 22:18:41;;;;;;;41.33;26.50;;;26.40;2201.60;;;;;;5075440;28;20556;-89
2021/01/11 22:21:10;;;;;;;37.90;26.48;;;26.50;2201.60;;;;;;5079113;28;20028;-88
2021/01/11 22:23:36;;;;;;;43.38;28.90;;;26.50;2201.60;;;;;;5078413;28;20019;-88
2021/01/11 22:26:05;;;;;;;47.85;29.17;;;51.90;2227.20;;;;;;5083215;28;20024;-88
2021/01/11 22:28:45;;;;;;;48.90;31.95;;;51.50;2227.20;;;;;;5078709;28;20036;-87
2021/01/11 22:31:12;;;;;;;53.75;34.20;;;26.30;2201.60;;;;;;5088914;28;20044;-87
2021/01/11 22:33:38;;;;;;;55.85;37.53;;;26.50;2201.60;;;;;;5090738;28;20020;-89
2021/01/11 22:36:30;;;;;;;65.35;38.22;;;26.50;2201.60;;;;;;5073761;28;20017;-87
2021/01/11 22:38:56;;;;;;;54.78;37.47;;;26.50;2201.60;;;;;;5055872;28;20041;-88
2021/01/11 22:41:23;;;;;;;53.38;37.55;;;26.50;2201.60;;;;;;5071886;28;20475;-85
2021/01/11 22:43:50;;;;;;;57.90;38.88;;;26.50;2201.60;;;;;;5075347;28;20043;-89
2021/01/11 22:46:16;;;;;;;48.15;32.67;;;26.50;2201.60;;;;;;5074610;28;20131;-89
2021/01/11 22:48:42;;;;;;;59.92;38.58;;;26.40;2201.60;;;;;;5074620;28;20028;-86
2021/01/11 22:51:08;;;;;;;69.90;38.38;;;51.20;2227.20;;;;;;5074858;28;20152;-89
2021/01/11 22:53:36;;;;;;;61.45;36.78;;;51.20;2227.20;;;;;;5072431;28;20492;-87
2021/01/11 22:56:10;;;;;;;53.63;34.47;;;51.20;2227.20;;;;;;5072149;28;20066;-86
2021/01/11 22:58:46;;;;;;;47.70;30.15;;;26.50;2201.60;;;;;;5088658;28;20020;-87
2021/01/11 23:01:13;;;;;;;45.67;29.65;;;26.40;2201.60;;;;;;5063519;28;20024;-86
2021/01/11 23:03:39;;;;;;;49.72;33.13;;;26.40;2201.60;;;;;;5077020;28;20031;-86
2021/01/11 23:06:08;;;;;;;47.83;30.48;;;26.40;2201.60;;;;;;5075981;28;20028;-88
2021/01/11 23:08:36;;;;;;;45.90;29.58;;;26.50;2201.60;;;;;;5076466;28;20020;-89
2021/01/11 23:11:02;;;;;;;45.88;29.65;;;26.40;2201.60;;;;;;5072662;28;20021;-89
2021/01/11 23:13:28;;;;;;;46.45;29.58;;;26.50;2201.60;;;;;;5072428;28;20047;-88
2021/01/11 23:15:54;;;;;;;49.65;29.70;;;26.40;2201.60;;;;;;5071531;28;20463;-88
2021/01/11 23:18:28;;;;;;;51.13;32.95;;;26.40;2201.60;;;;;;5072566;28;20037;-90
2021/01/11 23:20:54;;;;;;;58.33;37.83;;;26.50;2201.60;;;;;;5056485;28;20024;-87
2021/01/11 23:23:21;;;;;;;85.55;41.95;;;51.20;2227.20;;;;;;5073440;28;20031;-88
2021/01/11 23:25:47;;;;;;;76.10;45.40;;;51.20;2227.20;;;;;;5073817;28;20036;-87
2021/01/11 23:28:20;;;;;;;69.55;42.00;;;26.30;2201.60;;;;;;5073607;28;20025;-88
2021/01/11 23:30:57;;;;;;;50.53;32.42;;;51.20;2227.20;;;;;;5072785;28;20049;-87